Philadelphia International Airport
KPHL : now visible

Airfield :











YOU CAN JOIN US ON...

 
LOGIN :

Register | Disclaimer

   EN    FR    IT 

 









Legend :    VFR   Marginal VFR   IFR   Intensive IFR   Very Intensive IFR
Visi :
Ceiling :
>= 8 km
>= 3000ft
5 to 8 km
1000 to 3000 ft
1500m to 5 km
500 to 1000 ft
800 to 1500m
200 to 500 ft
< 800m
< 200 ft
Symbols :   Thunderstorms  Fog  Heavy snow  Heavy precipitations  Wind > 20 kt






- Airport Elevation : 36 ft
- IATA code : PHL


KPHL - Philadelphia International

CURRENT METAR :
  • 250354Z 25006KT 10SM FEW090 21/16 A2986 RMK AO2 SLP111 T02110156 $

EXPIRED METARs :
  • 250254Z 21003KT 10SM CLR 23/16 A2985 RMK AO2 SLP106 T02280156 51015 $
  • 250154Z 21005KT 10SM CLR 24/14 A2983 RMK AO2 SLP102 T02390144 $
  • 250054Z 33004KT 10SM FEW250 27/08 A2981 RMK AO2 SLP095 T02720083 $
  • 242354Z 30006KT 10SM FEW250 29/07 A2980 RMK AO2 SLP091 T02890072 10311 20289 55001 $

TAF KPHL
Valid from the 25 at 03:00 until the 26 at 06:00 UTC


250259Z 2503/2606 VRB03KT P6SM FEW250
FM251100 09004KT P6SM SCT250
FM251600 21009KT P6SM SCT050
KZDC FIR / North America



MET'MAP, your aeronautical weather chart ! - Copyright ORBIFLY December 2007 - Disclaimer

ORBIFLY MET'MAP TEAM :

Programming & Development : Alexandra Zaïnal
Original concept : Baudouin d'Aumeries
Technical & hardware support : Manuel Goepfert
Assistance : Marc-Olivier Méhu




SOURCES & CREDITS :

   NOAA       Earth
Advisory